Terminal Aerodrome Forecast
Issued by NWS

Home | Current Version | Previous Version | Text Only | Print | Product List | Glossary On
Versions: 1 2 3 4 5 6 7 8 9 10 11 12 13 14 15
000
FTUS43 KAPX 210520
TAFPLN
TAF
KPLN 210520Z 2106/2206 22012G21KT P6SM BKN140 WS015/21040KT
     FM211300 25012G21KT P6SM BKN080 WS020/23040KT
     FM211600 27014G22KT P6SM BKN035
     FM211800 28015KT P6SM VCSH BKN035
     FM212000 29015G24KT P6SM VCSH BKN030
     FM220000 31012G25KT P6SM VCSH BKN030=

USA.gov is the U.S. government's official web portal to all federal, state and local government web resources and services.